New England — V7HF3 — position and weather

sailwx.info

Track history (hours):
 
Tides and Currents Weather Stations Pressure Air Temp Water Temp Dewpoint Dewpoint Depression Visibility Wind Speed Wind Dir Waves Ship Positions

New England

Last reported at 2016-Aug-27 08:33 UTC. Time now 2016-Aug-28 14:06 UTC.
Position N 42°43' W 070°09'.

Length 183 m; draft 7.4 m.

Type: Ship. MMSI: 538002220.

Date/timePositionNaut miles runAvg speedWind from/ knotsBaromVisibWave heightAir tempDewpointWater temp
2016-Aug-27 08:33N 42°43' W 070°09'1312.8
2016-Aug-27 07:34N 42°37' W 070°24'1313.2
2016-Aug-27 06:34N 42°30' W 070°39'18 9.2
2016-Aug-27 04:33N 42°23' W 071°02'1 0.7
2016-Aug-27 03:33N 42°23' W 071°02'0 0.0
2016-Aug-27 02:26N 42°23' W 071°02'0 0.0
2016-Aug-27 01:29N 42°23' W 071°02'0 0.0
2016-Aug-27 00:32N 42°23' W 071°02'0 0.0
2016-Aug-26 23:23N 42°23' W 071°02'0 0.0
2016-Aug-26 22:32N 42°23' W 071°02'0 0.0
2016-Aug-26 21:32N 42°23' W 071°02'0 0.0
2016-Aug-26 20:32N 42°23' W 071°02'0 0.0
2016-Aug-26 18:32N 42°23' W 071°02'0 0.0
2016-Aug-26 17:17N 42°23' W 071°02'0 0.0
2016-Aug-26 15:29N 42°23' W 071°02'0 0.0
2016-Aug-26 13:29N 42°23' W 071°02'0 0.0
2016-Aug-26 12:20N 42°23' W 071°02'0 0.0
2016-Aug-26 10:26N 42°23' W 071°02'0 0.0
2016-Aug-26 09:11N 42°23' W 071°02'0 0.0
2016-Aug-26 08:29N 42°23' W 071°02'1 1.0
2016-Aug-26 07:33N 42°23' W 071°03'4 3.8
2016-Aug-26 06:31N 42°20' W 070°58'0 0.1
2016-Aug-26 04:28N 42°20' W 070°58'0 0.1
2016-Aug-26 03:31N 42°20' W 070°58'0 0.0
2016-Aug-26 02:31N 42°20' W 070°58'0 0.0
2016-Aug-26 01:31N 42°20' W 070°58'0 0.0
2016-Aug-26 00:28N 42°20' W 070°58'0 0.0
2016-Aug-25 23:28N 42°20' W 070°58'0 0.0
2016-Aug-25 22:31N 42°20' W 070°58'0 0.0
2016-Aug-25 21:28N 42°20' W 070°58'0 0.0
2016-Aug-25 20:28N 42°20' W 070°58'0 0.0
2016-Aug-25 19:28N 42°20' W 070°58'0 0.0
2016-Aug-25 18:28N 42°20' W 070°58'0 0.0
2016-Aug-25 17:31N 42°20' W 070°58'0 0.0
2016-Aug-25 16:31N 42°20' W 070°58'0 0.1
2016-Aug-25 15:31N 42°20' W 070°58'0 0.0
2016-Aug-25 14:31N 42°20' W 070°58'0 0.0
2016-Aug-25 13:31N 42°20' W 070°58'0 0.0
2016-Aug-25 12:28N 42°20' W 070°58'0 0.0
2016-Aug-25 11:31N 42°20' W 070°58'0 0.0
2016-Aug-25 10:31N 42°20' W 070°58'0 0.0
2016-Aug-25 09:28N 42°20' W 070°58'0 0.1
2016-Aug-25 08:30N 42°20' W 070°58'0 0.0
2016-Aug-25 07:33N 42°20' W 070°58'0 0.0
2016-Aug-25 06:30N 42°20' W 070°58'0 0.0
2016-Aug-25 04:33N 42°20' W 070°58'0 0.0
2016-Aug-25 03:33N 42°20' W 070°58'0 0.1
2016-Aug-25 02:33N 42°20' W 070°58'0 0.0
2016-Aug-25 01:33N 42°20' W 070°58'0 0.0
2016-Aug-25 00:33N 42°20' W 070°58'0 0.0
2016-Aug-24 23:30N 42°20' W 070°58'0 0.0
2016-Aug-24 22:33N 42°20' W 070°58'0 0.2
2016-Aug-24 21:33N 42°20' W 070°58'0 0.0
2016-Aug-24 20:33N 42°20' W 070°58'0 0.0
2016-Aug-24 19:33N 42°20' W 070°59'0 0.0
2016-Aug-24 18:30N 42°20' W 070°59'1 0.8
2016-Aug-24 17:33N 42°20' W 070°59'4 3.5
2016-Aug-24 16:33N 42°23' W 071°01'1 0.0
2016-Aug-23 16:33N 42°24' W 071°01'3 2.6
2016-Aug-23 15:33N 42°22' W 071°02'8 7.6
2016-Aug-23 14:33N 42°23' W 070°52'6 6.2
2016-Aug-23 13:33N 42°26' W 070°45'1313.1
2016-Aug-23 12:33N 42°34' W 070°31'1312.6
2016-Aug-23 11:33N 42°41' W 070°16'1313.3
2016-Aug-23 10:33N 42°48' W 070°01'1413.9
2016-Aug-23 09:34N 42°56' W 069°45'  
2016-Aug-19 20:34N 42°58' W 069°36'1413.8
2016-Aug-19 19:32N 42°51' W 069°53'1414.1
2016-Aug-19 18:33N 42°43' W 070°09'1414.3
2016-Aug-19 17:33N 42°36' W 070°25'1313.4
2016-Aug-19 16:33N 42°29' W 070°41'1312.9
2016-Aug-19 15:33N 42°22' W 070°55'5 4.9
2016-Aug-19 14:33N 42°23' W 071°02'1 1.1
2016-Aug-19 13:32N 42°24' W 071°01'0 0.0
2016-Aug-19 12:17N 42°24' W 071°01'0 0.0
2016-Aug-19 11:32N 42°24' W 071°01'0 0.0
2016-Aug-19 10:29N 42°24' W 071°01'0 0.0
2016-Aug-19 09:23N 42°24' W 071°01'0 0.0
2016-Aug-19 08:26N 42°24' W 071°01'0 0.0
2016-Aug-19 07:32N 42°24' W 071°01'0 0.0
2016-Aug-19 06:32N 42°24' W 071°01'0 0.0
2016-Aug-19 04:26N 42°24' W 071°01'0 0.0
2016-Aug-19 03:32N 42°24' W 071°01'0 0.0
2016-Aug-19 02:20N 42°24' W 071°01'0 0.0
2016-Aug-19 01:29N 42°24' W 071°01'0 0.0
2016-Aug-19 00:26N 42°24' W 071°01'0 0.0
2016-Aug-18 23:23N 42°24' W 071°01'0 0.0
2016-Aug-18 22:29N 42°24' W 071°01'0 0.0
2016-Aug-18 21:29N 42°24' W 071°01'0 0.0
2016-Aug-18 20:32N 42°24' W 071°01'0 0.0
2016-Aug-18 19:29N 42°24' W 071°01'0 0.0
2016-Aug-18 18:32N 42°24' W 071°01'0 0.0
2016-Aug-18 17:20N 42°24' W 071°01'0 0.0
2016-Aug-18 16:32N 42°24' W 071°01'0 0.0
2016-Aug-18 15:29N 42°24' W 071°01'0 0.0
2016-Aug-18 14:29N 42°24' W 071°01'1 1.3
2016-Aug-18 13:33N 42°23' W 071°02'4 3.8
2016-Aug-18 12:33N 42°20' W 070°59'1 1.0
2016-Aug-18 11:32N 42°20' W 070°58'0 0.1
2016-Aug-18 10:32N 42°20' W 070°58'0 0.2
2016-Aug-18 09:32N 42°20' W 070°58'0 0.0
2016-Aug-18 08:29N 42°20' W 070°58'0 0.0
2016-Aug-18 07:32N 42°20' W 070°58'0 0.0
2016-Aug-18 06:32N 42°20' W 070°58'0 0.0
2016-Aug-18 05:29N 42°20' W 070°58'0 0.0
2016-Aug-18 04:32N 42°20' W 070°58'0 0.1
2016-Aug-18 03:32N 42°20' W 070°58'0 0.1
2016-Aug-18 02:32N 42°20' W 070°58'0 0.0
2016-Aug-18 01:32N 42°20' W 070°58'1 1.2
2016-Aug-18 00:33N 42°20' W 070°57'1111.1
2016-Aug-17 23:33N 42°27' W 070°44'1413.5
2016-Aug-17 22:33N 42°35' W 070°29'1413.7
2016-Aug-17 21:33N 42°42' W 070°14'1413.6
2016-Aug-17 20:33N 42°49' W 069°58'  
Track history (hours):
 
Tides and Currents Weather Stations Pressure Air Temp Water Temp Dewpoint Dewpoint Depression Visibility Wind Speed Wind Dir Waves Ship Positions

New England

Last reported at 2016-Aug-27 08:33 UTC. Time now 2016-Aug-28 14:06 UTC.
Position N 42°43' W 070°09'.

Length 183 m; draft 7.4 m.

Type: Ship. MMSI: 538002220.

Date/timePositionNaut miles runAvg speedWind from/ knotsBaromVisibWave heightAir tempDewpointWater temp
2016-Aug-27 08:33N 42°43' W 070°09'1312.8
2016-Aug-27 07:34N 42°37' W 070°24'1313.2
2016-Aug-27 06:34N 42°30' W 070°39'18 9.2
2016-Aug-27 04:33N 42°23' W 071°02'1 0.7
2016-Aug-27 03:33N 42°23' W 071°02'0 0.0
2016-Aug-27 02:26N 42°23' W 071°02'0 0.0
2016-Aug-27 01:29N 42°23' W 071°02'0 0.0
2016-Aug-27 00:32N 42°23' W 071°02'0 0.0
2016-Aug-26 23:23N 42°23' W 071°02'0 0.0
2016-Aug-26 22:32N 42°23' W 071°02'0 0.0
2016-Aug-26 21:32N 42°23' W 071°02'0 0.0
2016-Aug-26 20:32N 42°23' W 071°02'0 0.0
2016-Aug-26 18:32N 42°23' W 071°02'0 0.0
2016-Aug-26 17:17N 42°23' W 071°02'0 0.0
2016-Aug-26 15:29N 42°23' W 071°02'0 0.0
2016-Aug-26 13:29N 42°23' W 071°02'0 0.0
2016-Aug-26 12:20N 42°23' W 071°02'0 0.0
2016-Aug-26 10:26N 42°23' W 071°02'0 0.0
2016-Aug-26 09:11N 42°23' W 071°02'0 0.0
2016-Aug-26 08:29N 42°23' W 071°02'1 1.0
2016-Aug-26 07:33N 42°23' W 071°03'4 3.8
2016-Aug-26 06:31N 42°20' W 070°58'0 0.1
2016-Aug-26 04:28N 42°20' W 070°58'0 0.1
2016-Aug-26 03:31N 42°20' W 070°58'0 0.0
2016-Aug-26 02:31N 42°20' W 070°58'0 0.0
2016-Aug-26 01:31N 42°20' W 070°58'0 0.0
2016-Aug-26 00:28N 42°20' W 070°58'0 0.0
2016-Aug-25 23:28N 42°20' W 070°58'0 0.0
2016-Aug-25 22:31N 42°20' W 070°58'0 0.0
2016-Aug-25 21:28N 42°20' W 070°58'0 0.0
2016-Aug-25 20:28N 42°20' W 070°58'0 0.0
2016-Aug-25 19:28N 42°20' W 070°58'0 0.0
2016-Aug-25 18:28N 42°20' W 070°58'0 0.0
2016-Aug-25 17:31N 42°20' W 070°58'0 0.0
2016-Aug-25 16:31N 42°20' W 070°58'0 0.1
2016-Aug-25 15:31N 42°20' W 070°58'0 0.0
2016-Aug-25 14:31N 42°20' W 070°58'0 0.0
2016-Aug-25 13:31N 42°20' W 070°58'0 0.0
2016-Aug-25 12:28N 42°20' W 070°58'0 0.0
2016-Aug-25 11:31N 42°20' W 070°58'0 0.0
2016-Aug-25 10:31N 42°20' W 070°58'0 0.0
2016-Aug-25 09:28N 42°20' W 070°58'0 0.1
2016-Aug-25 08:30N 42°20' W 070°58'0 0.0
2016-Aug-25 07:33N 42°20' W 070°58'0 0.0
2016-Aug-25 06:30N 42°20' W 070°58'0 0.0
2016-Aug-25 04:33N 42°20' W 070°58'0 0.0
2016-Aug-25 03:33N 42°20' W 070°58'0 0.1
2016-Aug-25 02:33N 42°20' W 070°58'0 0.0
2016-Aug-25 01:33N 42°20' W 070°58'0 0.0
2016-Aug-25 00:33N 42°20' W 070°58'0 0.0
2016-Aug-24 23:30N 42°20' W 070°58'0 0.0
2016-Aug-24 22:33N 42°20' W 070°58'0 0.2
2016-Aug-24 21:33N 42°20' W 070°58'0 0.0
2016-Aug-24 20:33N 42°20' W 070°58'0 0.0
2016-Aug-24 19:33N 42°20' W 070°59'0 0.0
2016-Aug-24 18:30N 42°20' W 070°59'1 0.8
2016-Aug-24 17:33N 42°20' W 070°59'4 3.5
2016-Aug-24 16:33N 42°23' W 071°01'1 0.0
2016-Aug-23 16:33N 42°24' W 071°01'3 2.6
2016-Aug-23 15:33N 42°22' W 071°02'8 7.6
2016-Aug-23 14:33N 42°23' W 070°52'6 6.2
2016-Aug-23 13:33N 42°26' W 070°45'1313.1
2016-Aug-23 12:33N 42°34' W 070°31'1312.6
2016-Aug-23 11:33N 42°41' W 070°16'1313.3
2016-Aug-23 10:33N 42°48' W 070°01'1413.9
2016-Aug-23 09:34N 42°56' W 069°45'  
2016-Aug-19 20:34N 42°58' W 069°36'1413.8
2016-Aug-19 19:32N 42°51' W 069°53'1414.1
2016-Aug-19 18:33N 42°43' W 070°09'1414.3
2016-Aug-19 17:33N 42°36' W 070°25'1313.4
2016-Aug-19 16:33N 42°29' W 070°41'1312.9
2016-Aug-19 15:33N 42°22' W 070°55'5 4.9
2016-Aug-19 14:33N 42°23' W 071°02'1 1.1
2016-Aug-19 13:32N 42°24' W 071°01'0 0.0
2016-Aug-19 12:17N 42°24' W 071°01'0 0.0
2016-Aug-19 11:32N 42°24' W 071°01'0 0.0
2016-Aug-19 10:29N 42°24' W 071°01'0 0.0
2016-Aug-19 09:23N 42°24' W 071°01'0 0.0
2016-Aug-19 08:26N 42°24' W 071°01'0 0.0
2016-Aug-19 07:32N 42°24' W 071°01'0 0.0
2016-Aug-19 06:32N 42°24' W 071°01'0 0.0
2016-Aug-19 04:26N 42°24' W 071°01'0 0.0
2016-Aug-19 03:32N 42°24' W 071°01'0 0.0
2016-Aug-19 02:20N 42°24' W 071°01'0 0.0
2016-Aug-19 01:29N 42°24' W 071°01'0 0.0
2016-Aug-19 00:26N 42°24' W 071°01'0 0.0
2016-Aug-18 23:23N 42°24' W 071°01'0 0.0
2016-Aug-18 22:29N 42°24' W 071°01'0 0.0
2016-Aug-18 21:29N 42°24' W 071°01'0 0.0
2016-Aug-18 20:32N 42°24' W 071°01'0 0.0
2016-Aug-18 19:29N 42°24' W 071°01'0 0.0
2016-Aug-18 18:32N 42°24' W 071°01'0 0.0
2016-Aug-18 17:20N 42°24' W 071°01'0 0.0
2016-Aug-18 16:32N 42°24' W 071°01'0 0.0
2016-Aug-18 15:29N 42°24' W 071°01'0 0.0
2016-Aug-18 14:29N 42°24' W 071°01'1 1.3
2016-Aug-18 13:33N 42°23' W 071°02'4 3.8
2016-Aug-18 12:33N 42°20' W 070°59'1 1.0
2016-Aug-18 11:32N 42°20' W 070°58'0 0.1
2016-Aug-18 10:32N 42°20' W 070°58'0 0.2
2016-Aug-18 09:32N 42°20' W 070°58'0 0.0
2016-Aug-18 08:29N 42°20' W 070°58'0 0.0
2016-Aug-18 07:32N 42°20' W 070°58'0 0.0
2016-Aug-18 06:32N 42°20' W 070°58'0 0.0
2016-Aug-18 05:29N 42°20' W 070°58'0 0.0
2016-Aug-18 04:32N 42°20' W 070°58'0 0.1
2016-Aug-18 03:32N 42°20' W 070°58'0 0.1
2016-Aug-18 02:32N 42°20' W 070°58'0 0.0
2016-Aug-18 01:32N 42°20' W 070°58'1 1.2
2016-Aug-18 00:33N 42°20' W 070°57'1111.1
2016-Aug-17 23:33N 42°27' W 070°44'1413.5
2016-Aug-17 22:33N 42°35' W 070°29'1413.7
2016-Aug-17 21:33N 42°42' W 070°14'1413.6
2016-Aug-17 20:33N 42°49' W 069°58'  

Dump ship's entire track history